sensor_id;sensor_type;location;lat;lon;timestamp;P1;durP1;ratioP1;P2;durP2;ratioP2
15385;SDS011;7791;47.246;9.648;2023-06-26T00:01:57;9.80;;;6.33;;
15385;SDS011;7791;47.246;9.648;2023-06-26T00:04:24;6.97;;;6.00;;
15385;SDS011;7791;47.246;9.648;2023-06-26T00:07:12;7.50;;;6.30;;
15385;SDS011;7791;47.246;9.648;2023-06-26T00:09:52;7.80;;;5.90;;
15385;SDS011;7791;47.246;9.648;2023-06-26T00:12:27;12.57;;;6.10;;
15385;SDS011;7791;47.246;9.648;2023-06-26T00:14:57;8.17;;;6.10;;
15385;SDS011;7791;47.246;9.648;2023-06-26T00:17:34;8.03;;;6.07;;
15385;SDS011;7791;47.246;9.648;2023-06-26T00:20:10;8.33;;;6.03;;
15385;SDS011;7791;47.246;9.648;2023-06-26T00:22:44;6.77;;;6.07;;
15385;SDS011;7791;47.246;9.648;2023-06-26T00:25:24;9.33;;;6.73;;
15385;SDS011;7791;47.246;9.648;2023-06-26T00:28:05;7.83;;;6.30;;
15385;SDS011;7791;47.246;9.648;2023-06-26T00:30:37;11.00;;;6.20;;
15385;SDS011;7791;47.246;9.648;2023-06-26T00:33:04;6.73;;;5.97;;
15385;SDS011;7791;47.246;9.648;2023-06-26T00:35:44;8.77;;;6.57;;
15385;SDS011;7791;47.246;9.648;2023-06-26T00:38:10;8.33;;;6.60;;
15385;SDS011;7791;47.246;9.648;2023-06-26T00:40:46;6.87;;;5.70;;
15385;SDS011;7791;47.246;9.648;2023-06-26T00:43:44;7.47;;;6.63;;
15385;SDS011;7791;47.246;9.648;2023-06-26T00:46:25;7.20;;;6.17;;
15385;SDS011;7791;47.246;9.648;2023-06-26T00:48:58;7.30;;;6.30;;
15385;SDS011;7791;47.246;9.648;2023-06-26T00:51:47;7.03;;;5.90;;
15385;SDS011;7791;47.246;9.648;2023-06-26T00:54:19;9.00;;;5.70;;
15385;SDS011;7791;47.246;9.648;2023-06-26T00:56:55;7.10;;;5.97;;
15385;SDS011;7791;47.246;9.648;2023-06-26T00:59:32;7.97;;;5.93;;
15385;SDS011;7791;47.246;9.648;2023-06-26T01:02:03;7.47;;;6.20;;
15385;SDS011;7791;47.246;9.648;2023-06-26T01:04:56;8.37;;;6.40;;
15385;SDS011;7791;47.246;9.648;2023-06-26T01:10:34;9.53;;;6.10;;
15385;SDS011;7791;47.246;9.648;2023-06-26T01:15:58;7.90;;;5.53;;
15385;SDS011;7791;47.246;9.648;2023-06-26T01:18:31;8.67;;;6.20;;
15385;SDS011;7791;47.246;9.648;2023-06-26T01:21:08;7.10;;;5.57;;
15385;SDS011;7791;47.246;9.648;2023-06-26T01:29:40;7.87;;;6.20;;
15385;SDS011;7791;47.246;9.648;2023-06-26T01:32:17;8.37;;;6.13;;
15385;SDS011;7791;47.246;9.648;2023-06-26T01:34:51;7.80;;;6.40;;
15385;SDS011;7791;47.246;9.648;2023-06-26T01:37:28;7.37;;;5.60;;
15385;SDS011;7791;47.246;9.648;2023-06-26T01:40:27;8.00;;;6.00;;
15385;SDS011;7791;47.246;9.648;2023-06-26T01:42:59;6.83;;;5.60;;
15385;SDS011;7791;47.246;9.648;2023-06-26T01:45:37;7.53;;;6.20;;
15385;SDS011;7791;47.246;9.648;2023-06-26T01:48:20;8.77;;;6.33;;
15385;SDS011;7791;47.246;9.648;2023-06-26T01:51:03;8.33;;;5.50;;
15385;SDS011;7791;47.246;9.648;2023-06-26T01:53:48;7.63;;;6.03;;
15385;SDS011;7791;47.246;9.648;2023-06-26T01:56:31;8.10;;;6.23;;
15385;SDS011;7791;47.246;9.648;2023-06-26T02:02:08;8.77;;;6.60;;
15385;SDS011;7791;47.246;9.648;2023-06-26T02:10:31;7.37;;;5.87;;
15385;SDS011;7791;47.246;9.648;2023-06-26T02:13:13;8.10;;;5.97;;
15385;SDS011;7791;47.246;9.648;2023-06-26T02:15:56;9.33;;;6.13;;
15385;SDS011;7791;47.246;9.648;2023-06-26T02:18:48;8.50;;;6.23;;
15385;SDS011;7791;47.246;9.648;2023-06-26T02:21:24;6.70;;;5.87;;
15385;SDS011;7791;47.246;9.648;2023-06-26T02:23:57;8.27;;;6.37;;
15385;SDS011;7791;47.246;9.648;2023-06-26T02:26:35;10.10;;;6.47;;
15385;SDS011;7791;47.246;9.648;2023-06-26T02:29:13;7.67;;;5.63;;
15385;SDS011;7791;47.246;9.648;2023-06-26T02:31:46;8.23;;;6.13;;
15385;SDS011;7791;47.246;9.648;2023-06-26T02:34:39;9.37;;;6.53;;
15385;SDS011;7791;47.246;9.648;2023-06-26T02:37:12;8.63;;;6.53;;
15385;SDS011;7791;47.246;9.648;2023-06-26T02:42:43;9.40;;;7.20;;
15385;SDS011;7791;47.246;9.648;2023-06-26T02:45:19;7.57;;;6.27;;
15385;SDS011;7791;47.246;9.648;2023-06-26T02:47:52;8.87;;;6.87;;
15385;SDS011;7791;47.246;9.648;2023-06-26T02:50:33;8.47;;;6.30;;
15385;SDS011;7791;47.246;9.648;2023-06-26T02:53:08;10.80;;;7.10;;
15385;SDS011;7791;47.246;9.648;2023-06-26T03:04:26;10.83;;;6.40;;
15385;SDS011;7791;47.246;9.648;2023-06-26T03:07:06;10.20;;;7.30;;
15385;SDS011;7791;47.246;9.648;2023-06-26T03:09:38;10.17;;;6.93;;
15385;SDS011;7791;47.246;9.648;2023-06-26T03:12:10;10.90;;;6.83;;
15385;SDS011;7791;47.246;9.648;2023-06-26T03:14:55;12.10;;;7.50;;
15385;SDS011;7791;47.246;9.648;2023-06-26T03:17:26;11.77;;;7.23;;
15385;SDS011;7791;47.246;9.648;2023-06-26T03:20:02;10.03;;;7.13;;
15385;SDS011;7791;47.246;9.648;2023-06-26T03:22:33;9.07;;;7.00;;
15385;SDS011;7791;47.246;9.648;2023-06-26T03:25:06;10.93;;;7.67;;
15385;SDS011;7791;47.246;9.648;2023-06-26T03:27:45;10.57;;;7.60;;
15385;SDS011;7791;47.246;9.648;2023-06-26T03:30:27;10.37;;;7.23;;
15385;SDS011;7791;47.246;9.648;2023-06-26T03:33:06;10.47;;;7.20;;
15385;SDS011;7791;47.246;9.648;2023-06-26T03:38:42;10.37;;;7.60;;
15385;SDS011;7791;47.246;9.648;2023-06-26T03:41:33;11.60;;;7.57;;
15385;SDS011;7791;47.246;9.648;2023-06-26T03:47:21;13.07;;;7.50;;
15385;SDS011;7791;47.246;9.648;2023-06-26T03:50:05;13.27;;;7.00;;
15385;SDS011;7791;47.246;9.648;2023-06-26T03:56:04;12.13;;;7.50;;
15385;SDS011;7791;47.246;9.648;2023-06-26T03:58:39;8.83;;;6.73;;
15385;SDS011;7791;47.246;9.648;2023-06-26T04:01:17;9.63;;;7.20;;
15385;SDS011;7791;47.246;9.648;2023-06-26T04:03:55;9.83;;;7.50;;
15385;SDS011;7791;47.246;9.648;2023-06-26T04:06:30;7.90;;;6.77;;
15385;SDS011;7791;47.246;9.648;2023-06-26T04:09:16;11.97;;;8.43;;
15385;SDS011;7791;47.246;9.648;2023-06-26T04:11:52;11.07;;;7.73;;
15385;SDS011;7791;47.246;9.648;2023-06-26T04:17:24;12.30;;;7.57;;
15385;SDS011;7791;47.246;9.648;2023-06-26T04:19:57;9.73;;;7.23;;
15385;SDS011;7791;47.246;9.648;2023-06-26T04:25:31;12.40;;;8.87;;
15385;SDS011;7791;47.246;9.648;2023-06-26T04:28:17;11.33;;;8.00;;
15385;SDS011;7791;47.246;9.648;2023-06-26T04:30:58;12.07;;;7.37;;
15385;SDS011;7791;47.246;9.648;2023-06-26T04:33:37;15.97;;;7.60;;
15385;SDS011;7791;47.246;9.648;2023-06-26T04:39:23;9.50;;;7.53;;
15385;SDS011;7791;47.246;9.648;2023-06-26T04:41:52;10.70;;;8.00;;
15385;SDS011;7791;47.246;9.648;2023-06-26T04:44:28;9.83;;;7.67;;
15385;SDS011;7791;47.246;9.648;2023-06-26T04:47:14;9.87;;;7.27;;
15385;SDS011;7791;47.246;9.648;2023-06-26T04:52:32;11.97;;;7.30;;
15385;SDS011;7791;47.246;9.648;2023-06-26T04:55:08;12.33;;;8.67;;
15385;SDS011;7791;47.246;9.648;2023-06-26T04:57:53;13.53;;;7.90;;
15385;SDS011;7791;47.246;9.648;2023-06-26T05:00:37;10.93;;;7.67;;
15385;SDS011;7791;47.246;9.648;2023-06-26T05:03:22;16.07;;;8.17;;
15385;SDS011;7791;47.246;9.648;2023-06-26T05:05:59;10.23;;;7.70;;
15385;SDS011;7791;47.246;9.648;2023-06-26T05:08:46;9.60;;;6.80;;
15385;SDS011;7791;47.246;9.648;2023-06-26T05:11:16;12.77;;;7.43;;
15385;SDS011;7791;47.246;9.648;2023-06-26T05:13:56;14.73;;;7.70;;
15385;SDS011;7791;47.246;9.648;2023-06-26T05:16:48;16.40;;;7.77;;
15385;SDS011;7791;47.246;9.648;2023-06-26T05:19:48;12.00;;;7.33;;
15385;SDS011;7791;47.246;9.648;2023-06-26T05:22:39;9.33;;;6.60;;
15385;SDS011;7791;47.246;9.648;2023-06-26T05:25:12;7.75;;;6.38;;
15385;SDS011;7791;47.246;9.648;2023-06-26T05:27:49;11.10;;;7.10;;
15385;SDS011;7791;47.246;9.648;2023-06-26T05:30:37;8.18;;;6.40;;
15385;SDS011;7791;47.246;9.648;2023-06-26T05:36:15;9.30;;;6.97;;
15385;SDS011;7791;47.246;9.648;2023-06-26T05:39:14;10.90;;;6.72;;
15385;SDS011;7791;47.246;9.648;2023-06-26T05:41:52;11.50;;;6.72;;
15385;SDS011;7791;47.246;9.648;2023-06-26T05:47:18;7.40;;;6.18;;
15385;SDS011;7791;47.246;9.648;2023-06-26T05:50:06;8.10;;;5.72;;
15385;SDS011;7791;47.246;9.648;2023-06-26T05:55:47;7.88;;;6.30;;
15385;SDS011;7791;47.246;9.648;2023-06-26T05:58:30;6.70;;;5.68;;
15385;SDS011;7791;47.246;9.648;2023-06-26T06:01:12;9.20;;;5.90;;
15385;SDS011;7791;47.246;9.648;2023-06-26T06:03:47;6.90;;;5.68;;
15385;SDS011;7791;47.246;9.648;2023-06-26T06:06:23;8.48;;;5.95;;
15385;SDS011;7791;47.246;9.648;2023-06-26T06:09:01;9.15;;;6.00;;
15385;SDS011;7791;47.246;9.648;2023-06-26T06:11:42;7.57;;;5.70;;
15385;SDS011;7791;47.246;9.648;2023-06-26T06:14:30;6.93;;;5.53;;
15385;SDS011;7791;47.246;9.648;2023-06-26T06:17:17;8.55;;;5.60;;
15385;SDS011;7791;47.246;9.648;2023-06-26T06:19:59;7.68;;;6.07;;
15385;SDS011;7791;47.246;9.648;2023-06-26T06:22:32;7.75;;;5.40;;
15385;SDS011;7791;47.246;9.648;2023-06-26T06:25:10;6.63;;;5.72;;
15385;SDS011;7791;47.246;9.648;2023-06-26T06:27:53;6.05;;;5.25;;
15385;SDS011;7791;47.246;9.648;2023-06-26T06:30:25;6.65;;;5.50;;
15385;SDS011;7791;47.246;9.648;2023-06-26T06:33:10;5.95;;;5.35;;
15385;SDS011;7791;47.246;9.648;2023-06-26T06:35:51;8.60;;;6.05;;
15385;SDS011;7791;47.246;9.648;2023-06-26T06:38:23;8.02;;;5.20;;
15385;SDS011;7791;47.246;9.648;2023-06-26T06:41:03;6.30;;;5.68;;
15385;SDS011;7791;47.246;9.648;2023-06-26T06:43:38;5.82;;;5.22;;
15385;SDS011;7791;47.246;9.648;2023-06-26T06:46:11;6.88;;;5.72;;
15385;SDS011;7791;47.246;9.648;2023-06-26T06:49:04;5.90;;;5.30;;
15385;SDS011;7791;47.246;9.648;2023-06-26T06:51:46;7.03;;;5.50;;
15385;SDS011;7791;47.246;9.648;2023-06-26T06:54:25;7.82;;;5.53;;
15385;SDS011;7791;47.246;9.648;2023-06-26T06:57:12;7.72;;;5.70;;
15385;SDS011;7791;47.246;9.648;2023-06-26T06:59:48;7.15;;;5.60;;
15385;SDS011;7791;47.246;9.648;2023-06-26T07:02:31;9.07;;;6.05;;
15385;SDS011;7791;47.246;9.648;2023-06-26T07:05:07;6.85;;;6.15;;
15385;SDS011;7791;47.246;9.648;2023-06-26T07:07:50;7.00;;;5.65;;
15385;SDS011;7791;47.246;9.648;2023-06-26T07:10:20;7.05;;;6.03;;
15385;SDS011;7791;47.246;9.648;2023-06-26T07:13:03;7.38;;;5.80;;
15385;SDS011;7791;47.246;9.648;2023-06-26T07:16:00;6.03;;;5.43;;
15385;SDS011;7791;47.246;9.648;2023-06-26T07:18:44;6.53;;;5.93;;
15385;SDS011;7791;47.246;9.648;2023-06-26T07:21:19;8.07;;;6.40;;
15385;SDS011;7791;47.246;9.648;2023-06-26T07:23:51;6.35;;;5.35;;
15385;SDS011;7791;47.246;9.648;2023-06-26T07:26:38;6.75;;;6.00;;
15385;SDS011;7791;47.246;9.648;2023-06-26T07:29:23;5.95;;;5.38;;
15385;SDS011;7791;47.246;9.648;2023-06-26T07:35:02;8.15;;;5.63;;
15385;SDS011;7791;47.246;9.648;2023-06-26T07:38:02;18.23;;;6.10;;
15385;SDS011;7791;47.246;9.648;2023-06-26T07:40:44;6.30;;;5.70;;
15385;SDS011;7791;47.246;9.648;2023-06-26T07:43:23;6.70;;;5.70;;
15385;SDS011;7791;47.246;9.648;2023-06-26T07:46:13;6.40;;;5.80;;
15385;SDS011;7791;47.246;9.648;2023-06-26T07:48:43;7.85;;;6.28;;
15385;SDS011;7791;47.246;9.648;2023-06-26T07:51:10;8.02;;;6.22;;
15385;SDS011;7791;47.246;9.648;2023-06-26T07:53:41;6.45;;;5.85;;
15385;SDS011;7791;47.246;9.648;2023-06-26T07:56:21;7.45;;;6.25;;
15385;SDS011;7791;47.246;9.648;2023-06-26T07:59:04;7.38;;;5.93;;
15385;SDS011;7791;47.246;9.648;2023-06-26T08:01:49;7.00;;;6.30;;
15385;SDS011;7791;47.246;9.648;2023-06-26T08:04:17;7.55;;;6.00;;
15385;SDS011;7791;47.246;9.648;2023-06-26T08:07:03;7.45;;;6.28;;
15385;SDS011;7791;47.246;9.648;2023-06-26T08:09:35;8.27;;;6.90;;
15385;SDS011;7791;47.246;9.648;2023-06-26T08:12:26;7.25;;;6.45;;
15385;SDS011;7791;47.246;9.648;2023-06-26T08:15:17;6.90;;;6.20;;
15385;SDS011;7791;47.246;9.648;2023-06-26T08:21:03;14.35;;;6.50;;
15385;SDS011;7791;47.246;9.648;2023-06-26T08:26:54;13.02;;;6.60;;
15385;SDS011;7791;47.246;9.648;2023-06-26T08:29:29;12.43;;;6.82;;
15385;SDS011;7791;47.246;9.648;2023-06-26T08:34:55;8.02;;;6.60;;
15385;SDS011;7791;47.246;9.648;2023-06-26T08:37:34;9.40;;;6.75;;
15385;SDS011;7791;47.246;9.648;2023-06-26T08:40:05;9.38;;;5.90;;
15385;SDS011;7791;47.246;9.648;2023-06-26T08:42:46;11.18;;;6.65;;
15385;SDS011;7791;47.246;9.648;2023-06-26T08:45:25;10.70;;;6.70;;
15385;SDS011;7791;47.246;9.648;2023-06-26T08:48:10;9.85;;;6.63;;
15385;SDS011;7791;47.246;9.648;2023-06-26T08:50:43;9.60;;;6.68;;
15385;SDS011;7791;47.246;9.648;2023-06-26T08:53:27;7.82;;;6.85;;
15385;SDS011;7791;47.246;9.648;2023-06-26T08:59:22;10.30;;;7.00;;
15385;SDS011;7791;47.246;9.648;2023-06-26T09:02:00;10.65;;;6.65;;
15385;SDS011;7791;47.246;9.648;2023-06-26T09:04:35;11.25;;;7.00;;
15385;SDS011;7791;47.246;9.648;2023-06-26T09:07:18;10.77;;;6.50;;
15385;SDS011;7791;47.246;9.648;2023-06-26T09:09:49;9.82;;;6.55;;
15385;SDS011;7791;47.246;9.648;2023-06-26T09:12:23;9.27;;;6.53;;
15385;SDS011;7791;47.246;9.648;2023-06-26T09:14:52;8.15;;;6.05;;
15385;SDS011;7791;47.246;9.648;2023-06-26T09:17:19;8.00;;;5.90;;
15385;SDS011;7791;47.246;9.648;2023-06-26T09:20:11;8.77;;;6.90;;
15385;SDS011;7791;47.246;9.648;2023-06-26T09:22:54;10.35;;;6.40;;
15385;SDS011;7791;47.246;9.648;2023-06-26T09:25:40;10.35;;;6.70;;
15385;SDS011;7791;47.246;9.648;2023-06-26T09:28:17;11.23;;;6.40;;
15385;SDS011;7791;47.246;9.648;2023-06-26T09:30:49;8.90;;;6.40;;
15385;SDS011;7791;47.246;9.648;2023-06-26T09:33:20;8.77;;;5.80;;
15385;SDS011;7791;47.246;9.648;2023-06-26T09:36:19;8.82;;;6.63;;
15385;SDS011;7791;47.246;9.648;2023-06-26T09:41:50;7.97;;;5.78;;
15385;SDS011;7791;47.246;9.648;2023-06-26T09:44:33;8.90;;;5.72;;
15385;SDS011;7791;47.246;9.648;2023-06-26T09:47:15;9.10;;;5.88;;
15385;SDS011;7791;47.246;9.648;2023-06-26T09:52:47;7.00;;;5.82;;
15385;SDS011;7791;47.246;9.648;2023-06-26T09:55:36;6.85;;;5.25;;
15385;SDS011;7791;47.246;9.648;2023-06-26T09:58:11;5.85;;;5.35;;
15385;SDS011;7791;47.246;9.648;2023-06-26T10:01:06;11.20;;;6.05;;
15385;SDS011;7791;47.246;9.648;2023-06-26T10:03:38;8.77;;;5.97;;
15385;SDS011;7791;47.246;9.648;2023-06-26T10:06:24;6.45;;;5.43;;
15385;SDS011;7791;47.246;9.648;2023-06-26T10:09:26;9.60;;;5.38;;
15385;SDS011;7791;47.246;9.648;2023-06-26T10:15:29;9.63;;;5.32;;
15385;SDS011;7791;47.246;9.648;2023-06-26T10:21:07;6.20;;;5.60;;
15385;SDS011;7791;47.246;9.648;2023-06-26T10:23:42;6.18;;;5.43;;
15385;SDS011;7791;47.246;9.648;2023-06-26T10:26:36;6.80;;;5.80;;
15385;SDS011;7791;47.246;9.648;2023-06-26T10:29:19;8.65;;;5.38;;
15385;SDS011;7791;47.246;9.648;2023-06-26T10:32:02;5.82;;;5.32;;
15385;SDS011;7791;47.246;9.648;2023-06-26T10:34:52;6.15;;;5.50;;
15385;SDS011;7791;47.246;9.648;2023-06-26T10:40:49;5.53;;;5.03;;
15385;SDS011;7791;47.246;9.648;2023-06-26T10:43:37;5.78;;;5.15;;
15385;SDS011;7791;47.246;9.648;2023-06-26T10:46:10;5.85;;;5.35;;
15385;SDS011;7791;47.246;9.648;2023-06-26T10:48:58;5.85;;;5.13;;
15385;SDS011;7791;47.246;9.648;2023-06-26T10:54:39;7.05;;;5.70;;
15385;SDS011;7791;47.246;9.648;2023-06-26T10:57:30;6.13;;;5.53;;
15385;SDS011;7791;47.246;9.648;2023-06-26T11:00:09;6.13;;;5.53;;
15385;SDS011;7791;47.246;9.648;2023-06-26T11:02:54;6.05;;;5.45;;
15385;SDS011;7791;47.246;9.648;2023-06-26T11:05:52;7.55;;;5.55;;
15385;SDS011;7791;47.246;9.648;2023-06-26T11:08:59;6.25;;;5.65;;
15385;SDS011;7791;47.246;9.648;2023-06-26T11:17:29;6.55;;;5.82;;
15385;SDS011;7791;47.246;9.648;2023-06-26T11:20:20;8.48;;;5.78;;
15385;SDS011;7791;47.246;9.648;2023-06-26T11:25:51;10.20;;;6.18;;
15385;SDS011;7791;47.246;9.648;2023-06-26T11:28:34;6.32;;;5.72;;
15385;SDS011;7791;47.246;9.648;2023-06-26T11:31:11;5.85;;;5.30;;
15385;SDS011;7791;47.246;9.648;2023-06-26T11:36:50;11.50;;;5.93;;
15385;SDS011;7791;47.246;9.648;2023-06-26T11:39:35;8.80;;;5.95;;
15385;SDS011;7791;47.246;9.648;2023-06-26T11:42:10;26.40;;;8.20;;
15385;SDS011;7791;47.246;9.648;2023-06-26T11:44:55;22.27;;;7.07;;
15385;SDS011;7791;47.246;9.648;2023-06-26T11:53:09;6.53;;;5.57;;
15385;SDS011;7791;47.246;9.648;2023-06-26T11:56:06;6.68;;;5.72;;
15385;SDS011;7791;47.246;9.648;2023-06-26T11:59:01;6.07;;;5.47;;
15385;SDS011;7791;47.246;9.648;2023-06-26T12:01:38;8.80;;;5.80;;
15385;SDS011;7791;47.246;9.648;2023-06-26T12:04:19;9.90;;;6.13;;
15385;SDS011;7791;47.246;9.648;2023-06-26T12:06:53;14.32;;;6.38;;
15385;SDS011;7791;47.246;9.648;2023-06-26T12:09:45;6.55;;;5.85;;
15385;SDS011;7791;47.246;9.648;2023-06-26T12:12:21;10.38;;;6.75;;
15385;SDS011;7791;47.246;9.648;2023-06-26T12:17:46;6.85;;;5.85;;
15385;SDS011;7791;47.246;9.648;2023-06-26T12:20:39;10.02;;;6.32;;
15385;SDS011;7791;47.246;9.648;2023-06-26T12:23:18;8.35;;;6.25;;
15385;SDS011;7791;47.246;9.648;2023-06-26T12:26:15;8.63;;;6.53;;
15385;SDS011;7791;47.246;9.648;2023-06-26T12:29:07;11.50;;;6.05;;
15385;SDS011;7791;47.246;9.648;2023-06-26T12:31:49;9.00;;;6.10;;
15385;SDS011;7791;47.246;9.648;2023-06-26T12:34:28;7.30;;;5.82;;
15385;SDS011;7791;47.246;9.648;2023-06-26T12:37:18;7.80;;;5.70;;
15385;SDS011;7791;47.246;9.648;2023-06-26T12:39:55;9.27;;;6.18;;
15385;SDS011;7791;47.246;9.648;2023-06-26T12:42:40;6.22;;;5.55;;
15385;SDS011;7791;47.246;9.648;2023-06-26T12:45:21;36.00;;;9.07;;
15385;SDS011;7791;47.246;9.648;2023-06-26T12:48:16;6.97;;;5.60;;
15385;SDS011;7791;47.246;9.648;2023-06-26T12:50:56;7.05;;;5.95;;
15385;SDS011;7791;47.246;9.648;2023-06-26T12:53:50;11.52;;;5.82;;
15385;SDS011;7791;47.246;9.648;2023-06-26T12:56:30;7.53;;;6.05;;
15385;SDS011;7791;47.246;9.648;2023-06-26T12:58:59;6.43;;;5.80;;
15385;SDS011;7791;47.246;9.648;2023-06-26T13:07:22;8.88;;;6.22;;
15385;SDS011;7791;47.246;9.648;2023-06-26T13:10:06;11.68;;;5.80;;
15385;SDS011;7791;47.246;9.648;2023-06-26T13:12:32;8.07;;;5.85;;
15385;SDS011;7791;47.246;9.648;2023-06-26T13:14:57;10.45;;;6.10;;
15385;SDS011;7791;47.246;9.648;2023-06-26T13:17:38;6.80;;;5.90;;
15385;SDS011;7791;47.246;9.648;2023-06-26T13:20:13;7.43;;;6.20;;
15385;SDS011;7791;47.246;9.648;2023-06-26T13:22:47;7.43;;;6.10;;
15385;SDS011;7791;47.246;9.648;2023-06-26T13:25:26;6.63;;;5.85;;
15385;SDS011;7791;47.246;9.648;2023-06-26T13:30:56;24.52;;;8.15;;
15385;SDS011;7791;47.246;9.648;2023-06-26T13:33:31;7.35;;;6.50;;
15385;SDS011;7791;47.246;9.648;2023-06-26T13:36:19;9.73;;;6.10;;
15385;SDS011;7791;47.246;9.648;2023-06-26T13:39:04;7.57;;;6.47;;
15385;SDS011;7791;47.246;9.648;2023-06-26T13:41:36;7.05;;;6.15;;
15385;SDS011;7791;47.246;9.648;2023-06-26T13:44:06;6.53;;;5.70;;
15385;SDS011;7791;47.246;9.648;2023-06-26T13:46:49;9.52;;;6.57;;
15385;SDS011;7791;47.246;9.648;2023-06-26T13:49:27;7.00;;;5.88;;
15385;SDS011;7791;47.246;9.648;2023-06-26T13:52:11;8.77;;;5.65;;
15385;SDS011;7791;47.246;9.648;2023-06-26T13:57:37;6.55;;;5.93;;
15385;SDS011;7791;47.246;9.648;2023-06-26T14:00:05;7.15;;;6.35;;
15385;SDS011;7791;47.246;9.648;2023-06-26T14:02:34;8.95;;;6.22;;
15385;SDS011;7791;47.246;9.648;2023-06-26T14:05:03;8.48;;;6.30;;
15385;SDS011;7791;47.246;9.648;2023-06-26T14:07:52;9.55;;;6.22;;
15385;SDS011;7791;47.246;9.648;2023-06-26T14:10:29;7.88;;;6.30;;
15385;SDS011;7791;47.246;9.648;2023-06-26T14:13:05;7.47;;;5.97;;
15385;SDS011;7791;47.246;9.648;2023-06-26T14:15:37;6.28;;;5.68;;
15385;SDS011;7791;47.246;9.648;2023-06-26T14:18:13;12.30;;;7.00;;
15385;SDS011;7791;47.246;9.648;2023-06-26T14:21:08;7.15;;;6.00;;
15385;SDS011;7791;47.246;9.648;2023-06-26T14:23:40;8.77;;;6.63;;
15385;SDS011;7791;47.246;9.648;2023-06-26T14:29:16;6.70;;;6.10;;
15385;SDS011;7791;47.246;9.648;2023-06-26T14:31:51;12.20;;;6.40;;
15385;SDS011;7791;47.246;9.648;2023-06-26T14:34:26;6.63;;;5.93;;
15385;SDS011;7791;47.246;9.648;2023-06-26T14:36:54;6.75;;;6.05;;
15385;SDS011;7791;47.246;9.648;2023-06-26T14:39:43;8.55;;;6.20;;
15385;SDS011;7791;47.246;9.648;2023-06-26T14:42:32;6.78;;;6.15;;
15385;SDS011;7791;47.246;9.648;2023-06-26T14:45:05;8.10;;;5.95;;
15385;SDS011;7791;47.246;9.648;2023-06-26T14:47:46;9.25;;;5.70;;
15385;SDS011;7791;47.246;9.648;2023-06-26T14:50:34;6.22;;;5.63;;
15385;SDS011;7791;47.246;9.648;2023-06-26T14:53:05;10.25;;;5.80;;
15385;SDS011;7791;47.246;9.648;2023-06-26T14:55:34;8.68;;;6.03;;
15385;SDS011;7791;47.246;9.648;2023-06-26T14:58:10;8.75;;;5.95;;
15385;SDS011;7791;47.246;9.648;2023-06-26T15:00:53;18.95;;;7.55;;
15385;SDS011;7791;47.246;9.648;2023-06-26T15:03:29;8.13;;;6.13;;
15385;SDS011;7791;47.246;9.648;2023-06-26T15:06:00;6.50;;;5.85;;
15385;SDS011;7791;47.246;9.648;2023-06-26T15:08:30;8.00;;;6.85;;
15385;SDS011;7791;47.246;9.648;2023-06-26T15:11:00;7.55;;;6.55;;
15385;SDS011;7791;47.246;9.648;2023-06-26T15:13:46;8.07;;;6.22;;
15385;SDS011;7791;47.246;9.648;2023-06-26T15:16:32;7.15;;;6.45;;
15385;SDS011;7791;47.246;9.648;2023-06-26T15:19:23;8.00;;;6.20;;
15385;SDS011;7791;47.246;9.648;2023-06-26T15:21:54;6.82;;;6.15;;
15385;SDS011;7791;47.246;9.648;2023-06-26T15:24:28;7.97;;;6.22;;
15385;SDS011;7791;47.246;9.648;2023-06-26T15:26:55;8.93;;;6.05;;
15385;SDS011;7791;47.246;9.648;2023-06-26T15:29:37;9.20;;;6.53;;
15385;SDS011;7791;47.246;9.648;2023-06-26T15:32:13;8.65;;;6.32;;
15385;SDS011;7791;47.246;9.648;2023-06-26T15:34:56;6.25;;;5.65;;
15385;SDS011;7791;47.246;9.648;2023-06-26T15:37:32;7.43;;;6.60;;
15385;SDS011;7791;47.246;9.648;2023-06-26T15:43:16;8.98;;;5.95;;
15385;SDS011;7791;47.246;9.648;2023-06-26T15:58:14;8.80;;;6.68;;
15385;SDS011;7791;47.246;9.648;2023-06-26T16:00:58;8.43;;;6.38;;
15385;SDS011;7791;47.246;9.648;2023-06-26T16:04:14;8.35;;;6.38;;
15385;SDS011;7791;47.246;9.648;2023-06-26T16:06:47;6.45;;;5.85;;
15385;SDS011;7791;47.246;9.648;2023-06-26T16:09:27;7.40;;;6.70;;
15385;SDS011;7791;47.246;9.648;2023-06-26T16:15:33;7.15;;;6.45;;
15385;SDS011;7791;47.246;9.648;2023-06-26T16:21:18;7.97;;;6.47;;
15385;SDS011;7791;47.246;9.648;2023-06-26T16:23:51;8.57;;;6.70;;
15385;SDS011;7791;47.246;9.648;2023-06-26T16:26:30;8.90;;;6.43;;
15385;SDS011;7791;47.246;9.648;2023-06-26T16:29:16;7.57;;;6.72;;
15385;SDS011;7791;47.246;9.648;2023-06-26T16:31:54;12.43;;;7.45;;
15385;SDS011;7791;47.246;9.648;2023-06-26T16:34:27;9.52;;;6.90;;
15385;SDS011;7791;47.246;9.648;2023-06-26T16:37:10;10.85;;;6.68;;
15385;SDS011;7791;47.246;9.648;2023-06-26T16:39:58;9.02;;;7.00;;
15385;SDS011;7791;47.246;9.648;2023-06-26T16:42:36;7.47;;;6.57;;
15385;SDS011;7791;47.246;9.648;2023-06-26T16:45:12;8.32;;;6.88;;
15385;SDS011;7791;47.246;9.648;2023-06-26T16:48:03;7.72;;;6.85;;
15385;SDS011;7791;47.246;9.648;2023-06-26T16:50:42;8.07;;;7.28;;
15385;SDS011;7791;47.246;9.648;2023-06-26T16:56:19;8.52;;;7.53;;
15385;SDS011;7791;47.246;9.648;2023-06-26T17:04:42;11.75;;;7.25;;
15385;SDS011;7791;47.246;9.648;2023-06-26T17:10:29;10.15;;;7.53;;
15385;SDS011;7791;47.246;9.648;2023-06-26T17:13:04;8.90;;;7.32;;
15385;SDS011;7791;47.246;9.648;2023-06-26T17:21:10;9.90;;;7.68;;
15385;SDS011;7791;47.246;9.648;2023-06-26T17:24:05;9.00;;;7.38;;
15385;SDS011;7791;47.246;9.648;2023-06-26T17:29:43;9.90;;;7.40;;
15385;SDS011;7791;47.246;9.648;2023-06-26T17:32:18;10.80;;;7.10;;
15385;SDS011;7791;47.246;9.648;2023-06-26T17:34:49;9.32;;;7.28;;
15385;SDS011;7791;47.246;9.648;2023-06-26T17:37:38;10.73;;;7.85;;
15385;SDS011;7791;47.246;9.648;2023-06-26T17:40:13;11.20;;;7.70;;
15385;SDS011;7791;47.246;9.648;2023-06-26T17:43:05;8.80;;;7.47;;
15385;SDS011;7791;47.246;9.648;2023-06-26T17:46:03;13.23;;;7.35;;
15385;SDS011;7791;47.246;9.648;2023-06-26T17:48:44;9.35;;;6.85;;
15385;SDS011;7791;47.246;9.648;2023-06-26T17:51:20;9.18;;;7.72;;
15385;SDS011;7791;47.246;9.648;2023-06-26T17:54:04;14.50;;;7.82;;
15385;SDS011;7791;47.246;9.648;2023-06-26T17:56:39;8.57;;;7.68;;
15385;SDS011;7791;47.246;9.648;2023-06-26T17:59:28;8.93;;;7.75;;
15385;SDS011;7791;47.246;9.648;2023-06-26T18:02:35;10.05;;;7.35;;
15385;SDS011;7791;47.246;9.648;2023-06-26T18:05:10;10.20;;;7.60;;
15385;SDS011;7791;47.246;9.648;2023-06-26T18:11:04;9.60;;;7.55;;
15385;SDS011;7791;47.246;9.648;2023-06-26T18:13:47;10.32;;;7.63;;
15385;SDS011;7791;47.246;9.648;2023-06-26T18:16:26;9.85;;;7.68;;
15385;SDS011;7791;47.246;9.648;2023-06-26T18:19:09;14.35;;;7.30;;
15385;SDS011;7791;47.246;9.648;2023-06-26T18:21:42;9.70;;;7.40;;
15385;SDS011;7791;47.246;9.648;2023-06-26T18:27:10;10.32;;;7.00;;
15385;SDS011;7791;47.246;9.648;2023-06-26T18:29:46;9.82;;;7.50;;
15385;SDS011;7791;47.246;9.648;2023-06-26T18:32:28;11.75;;;7.38;;
15385;SDS011;7791;47.246;9.648;2023-06-26T18:35:00;11.18;;;7.25;;
15385;SDS011;7791;47.246;9.648;2023-06-26T18:37:31;10.43;;;6.68;;
15385;SDS011;7791;47.246;9.648;2023-06-26T18:40:10;12.15;;;6.82;;
15385;SDS011;7791;47.246;9.648;2023-06-26T18:43:03;11.77;;;6.60;;
15385;SDS011;7791;47.246;9.648;2023-06-26T18:45:55;7.15;;;5.78;;
15385;SDS011;7791;47.246;9.648;2023-06-26T18:48:27;8.40;;;6.15;;
15385;SDS011;7791;47.246;9.648;2023-06-26T18:53:51;11.45;;;6.05;;
15385;SDS011;7791;47.246;9.648;2023-06-26T18:56:27;11.98;;;6.38;;
15385;SDS011;7791;47.246;9.648;2023-06-26T18:59:09;6.75;;;5.25;;
15385;SDS011;7791;47.246;9.648;2023-06-26T19:01:56;7.50;;;5.15;;
15385;SDS011;7791;47.246;9.648;2023-06-26T19:04:32;10.20;;;5.07;;
15385;SDS011;7791;47.246;9.648;2023-06-26T19:07:13;8.27;;;5.10;;
15385;SDS011;7791;47.246;9.648;2023-06-26T19:12:42;9.80;;;5.18;;
15385;SDS011;7791;47.246;9.648;2023-06-26T19:15:40;6.53;;;4.50;;
15385;SDS011;7791;47.246;9.648;2023-06-26T19:18:21;7.72;;;4.25;;
15385;SDS011;7791;47.246;9.648;2023-06-26T19:20:56;5.75;;;4.57;;